sensor_id;sensor_type;location;lat;lon;timestamp;P1;durP1;ratioP1;P2;durP2;ratioP2
16314;SDS011;8266;52.150;4.768;2022-09-03T00:00:04;1.67;;;0.80;;
16314;SDS011;8266;52.150;4.768;2022-09-03T00:02:37;1.40;;;0.85;;
16314;SDS011;8266;52.150;4.768;2022-09-03T00:05:11;1.73;;;1.10;;
16314;SDS011;8266;52.150;4.768;2022-09-03T00:07:44;0.90;;;0.90;;
16314;SDS011;8266;52.150;4.768;2022-09-03T00:10:20;3.22;;;0.98;;
16314;SDS011;8266;52.150;4.768;2022-09-03T00:12:53;0.93;;;0.77;;
16314;SDS011;8266;52.150;4.768;2022-09-03T00:15:26;0.98;;;0.60;;
16314;SDS011;8266;52.150;4.768;2022-09-03T00:17:57;0.65;;;0.60;;
16314;SDS011;8266;52.150;4.768;2022-09-03T00:20:30;1.58;;;0.90;;
16314;SDS011;8266;52.150;4.768;2022-09-03T00:23:03;1.35;;;0.90;;
16314;SDS011;8266;52.150;4.768;2022-09-03T00:25:33;1.58;;;0.75;;
16314;SDS011;8266;52.150;4.768;2022-09-03T00:28:07;2.83;;;0.80;;
16314;SDS011;8266;52.150;4.768;2022-09-03T00:30:39;2.00;;;0.75;;
16314;SDS011;8266;52.150;4.768;2022-09-03T00:33:12;2.00;;;0.80;;
16314;SDS011;8266;52.150;4.768;2022-09-03T00:35:48;1.98;;;1.00;;
16314;SDS011;8266;52.150;4.768;2022-09-03T00:38:28;1.05;;;0.90;;
16314;SDS011;8266;52.150;4.768;2022-09-03T00:40:58;1.23;;;0.77;;
16314;SDS011;8266;52.150;4.768;2022-09-03T00:43:36;1.88;;;0.70;;
16314;SDS011;8266;52.150;4.768;2022-09-03T00:46:17;1.25;;;0.93;;
16314;SDS011;8266;52.150;4.768;2022-09-03T00:48:56;3.42;;;1.08;;
16314;SDS011;8266;52.150;4.768;2022-09-03T00:51:42;1.48;;;0.82;;
16314;SDS011;8266;52.150;4.768;2022-09-03T00:54:17;1.05;;;0.80;;
16314;SDS011;8266;52.150;4.768;2022-09-03T00:56:53;0.93;;;0.80;;
16314;SDS011;8266;52.150;4.768;2022-09-03T00:59:30;2.10;;;0.90;;
16314;SDS011;8266;52.150;4.768;2022-09-03T01:02:10;2.03;;;1.15;;
16314;SDS011;8266;52.150;4.768;2022-09-03T01:04:49;1.70;;;0.77;;
16314;SDS011;8266;52.150;4.768;2022-09-03T01:07:29;1.05;;;0.73;;
16314;SDS011;8266;52.150;4.768;2022-09-03T01:10:24;1.38;;;0.98;;
16314;SDS011;8266;52.150;4.768;2022-09-03T01:13:03;1.33;;;0.90;;
16314;SDS011;8266;52.150;4.768;2022-09-03T01:15:39;1.65;;;1.05;;
16314;SDS011;8266;52.150;4.768;2022-09-03T01:18:17;1.02;;;0.93;;
16314;SDS011;8266;52.150;4.768;2022-09-03T01:20:53;1.42;;;0.82;;
16314;SDS011;8266;52.150;4.768;2022-09-03T01:23:39;1.08;;;0.80;;
16314;SDS011;8266;52.150;4.768;2022-09-03T01:26:26;1.10;;;0.98;;
16314;SDS011;8266;52.150;4.768;2022-09-03T01:29:09;1.67;;;1.00;;
16314;SDS011;8266;52.150;4.768;2022-09-03T01:31:45;1.42;;;0.70;;
16314;SDS011;8266;52.150;4.768;2022-09-03T01:34:26;1.65;;;0.95;;
16314;SDS011;8266;52.150;4.768;2022-09-03T01:37:05;2.08;;;0.88;;
16314;SDS011;8266;52.150;4.768;2022-09-03T01:39:42;2.58;;;0.93;;
16314;SDS011;8266;52.150;4.768;2022-09-03T01:42:17;1.25;;;0.95;;
16314;SDS011;8266;52.150;4.768;2022-09-03T01:44:54;1.30;;;1.00;;
16314;SDS011;8266;52.150;4.768;2022-09-03T01:47:42;1.15;;;1.00;;
16314;SDS011;8266;52.150;4.768;2022-09-03T01:50:24;1.63;;;1.40;;
16314;SDS011;8266;52.150;4.768;2022-09-03T01:53:02;1.13;;;1.02;;
16314;SDS011;8266;52.150;4.768;2022-09-03T01:55:39;2.22;;;1.10;;
16314;SDS011;8266;52.150;4.768;2022-09-03T01:58:15;1.10;;;1.00;;
16314;SDS011;8266;52.150;4.768;2022-09-03T02:00:48;2.28;;;1.05;;
16314;SDS011;8266;52.150;4.768;2022-09-03T02:03:22;1.27;;;0.90;;
16314;SDS011;8266;52.150;4.768;2022-09-03T02:05:54;1.27;;;0.90;;
16314;SDS011;8266;52.150;4.768;2022-09-03T02:08:21;1.25;;;1.00;;
16314;SDS011;8266;52.150;4.768;2022-09-03T02:10:49;0.93;;;0.80;;
16314;SDS011;8266;52.150;4.768;2022-09-03T02:13:22;1.05;;;0.80;;
16314;SDS011;8266;52.150;4.768;2022-09-03T02:15:54;1.23;;;1.00;;
16314;SDS011;8266;52.150;4.768;2022-09-03T02:18:25;1.95;;;1.00;;
16314;SDS011;8266;52.150;4.768;2022-09-03T02:20:58;1.48;;;0.75;;
16314;SDS011;8266;52.150;4.768;2022-09-03T02:23:27;0.80;;;0.77;;
16314;SDS011;8266;52.150;4.768;2022-09-03T02:25:55;2.03;;;0.93;;
16314;SDS011;8266;52.150;4.768;2022-09-03T02:28:25;1.20;;;1.10;;
16314;SDS011;8266;52.150;4.768;2022-09-03T02:30:55;1.50;;;0.90;;
16314;SDS011;8266;52.150;4.768;2022-09-03T02:33:23;2.75;;;1.00;;
16314;SDS011;8266;52.150;4.768;2022-09-03T02:35:51;1.75;;;1.00;;
16314;SDS011;8266;52.150;4.768;2022-09-03T02:38:20;1.27;;;0.70;;
16314;SDS011;8266;52.150;4.768;2022-09-03T02:40:49;1.42;;;0.80;;
16314;SDS011;8266;52.150;4.768;2022-09-03T02:43:18;1.00;;;0.70;;
16314;SDS011;8266;52.150;4.768;2022-09-03T02:45:49;1.83;;;0.90;;
16314;SDS011;8266;52.150;4.768;2022-09-03T02:48:23;2.65;;;0.80;;
16314;SDS011;8266;52.150;4.768;2022-09-03T02:50:50;1.40;;;0.95;;
16314;SDS011;8266;52.150;4.768;2022-09-03T02:53:17;1.13;;;1.02;;
16314;SDS011;8266;52.150;4.768;2022-09-03T02:55:44;3.45;;;0.98;;
16314;SDS011;8266;52.150;4.768;2022-09-03T02:58:12;1.42;;;0.82;;
16314;SDS011;8266;52.150;4.768;2022-09-03T03:00:39;1.20;;;1.10;;
16314;SDS011;8266;52.150;4.768;2022-09-03T03:03:06;2.83;;;1.10;;
16314;SDS011;8266;52.150;4.768;2022-09-03T03:05:39;2.17;;;1.08;;
16314;SDS011;8266;52.150;4.768;2022-09-03T03:08:09;1.40;;;0.90;;
16314;SDS011;8266;52.150;4.768;2022-09-03T03:10:39;3.30;;;1.15;;
16314;SDS011;8266;52.150;4.768;2022-09-03T03:13:06;1.55;;;0.98;;
16314;SDS011;8266;52.150;4.768;2022-09-03T03:15:33;1.52;;;0.90;;
16314;SDS011;8266;52.150;4.768;2022-09-03T03:18:00;2.55;;;0.82;;
16314;SDS011;8266;52.150;4.768;2022-09-03T03:20:27;1.08;;;0.95;;
16314;SDS011;8266;52.150;4.768;2022-09-03T03:22:57;1.00;;;0.90;;
16314;SDS011;8266;52.150;4.768;2022-09-03T03:25:30;1.20;;;0.98;;
16314;SDS011;8266;52.150;4.768;2022-09-03T03:27:58;1.98;;;0.80;;
16314;SDS011;8266;52.150;4.768;2022-09-03T03:30:25;1.42;;;0.88;;
16314;SDS011;8266;52.150;4.768;2022-09-03T03:32:55;4.72;;;0.93;;
16314;SDS011;8266;52.150;4.768;2022-09-03T03:35:23;3.17;;;0.90;;
16314;SDS011;8266;52.150;4.768;2022-09-03T03:37:50;1.20;;;0.70;;
16314;SDS011;8266;52.150;4.768;2022-09-03T03:40:18;2.75;;;1.00;;
16314;SDS011;8266;52.150;4.768;2022-09-03T03:42:45;2.13;;;0.90;;
16314;SDS011;8266;52.150;4.768;2022-09-03T03:45:12;4.65;;;1.00;;
16314;SDS011;8266;52.150;4.768;2022-09-03T03:47:39;1.63;;;1.02;;
16314;SDS011;8266;52.150;4.768;2022-09-03T03:50:07;1.77;;;0.88;;
16314;SDS011;8266;52.150;4.768;2022-09-03T03:52:34;1.75;;;0.80;;
16314;SDS011;8266;52.150;4.768;2022-09-03T03:55:01;2.22;;;0.95;;
16314;SDS011;8266;52.150;4.768;2022-09-03T03:57:30;1.13;;;0.82;;
16314;SDS011;8266;52.150;4.768;2022-09-03T03:59:57;1.90;;;0.90;;
16314;SDS011;8266;52.150;4.768;2022-09-03T04:02:24;1.45;;;0.88;;
16314;SDS011;8266;52.150;4.768;2022-09-03T04:04:51;1.63;;;0.90;;
16314;SDS011;8266;52.150;4.768;2022-09-03T04:07:18;1.90;;;0.98;;
16314;SDS011;8266;52.150;4.768;2022-09-03T04:09:45;1.13;;;0.90;;
16314;SDS011;8266;52.150;4.768;2022-09-03T04:12:13;2.83;;;1.10;;
16314;SDS011;8266;52.150;4.768;2022-09-03T04:14:42;1.48;;;1.00;;
16314;SDS011;8266;52.150;4.768;2022-09-03T04:17:08;0.80;;;0.80;;
16314;SDS011;8266;52.150;4.768;2022-09-03T04:19:35;0.98;;;0.73;;
16314;SDS011;8266;52.150;4.768;2022-09-03T04:22:02;2.33;;;1.08;;
16314;SDS011;8266;52.150;4.768;2022-09-03T04:24:29;1.00;;;0.70;;
16314;SDS011;8266;52.150;4.768;2022-09-03T04:26:56;0.90;;;0.90;;
16314;SDS011;8266;52.150;4.768;2022-09-03T04:29:23;3.67;;;1.00;;
16314;SDS011;8266;52.150;4.768;2022-09-03T04:31:52;2.08;;;0.95;;
16314;SDS011;8266;52.150;4.768;2022-09-03T04:34:36;1.63;;;1.10;;
16314;SDS011;8266;52.150;4.768;2022-09-03T04:37:03;2.40;;;1.13;;
16314;SDS011;8266;52.150;4.768;2022-09-03T04:39:30;1.10;;;0.80;;
16314;SDS011;8266;52.150;4.768;2022-09-03T04:41:57;3.67;;;0.80;;
16314;SDS011;8266;52.150;4.768;2022-09-03T04:44:24;3.65;;;1.10;;
16314;SDS011;8266;52.150;4.768;2022-09-03T04:46:53;1.80;;;1.00;;
16314;SDS011;8266;52.150;4.768;2022-09-03T04:49:20;1.60;;;0.82;;
16314;SDS011;8266;52.150;4.768;2022-09-03T04:51:48;1.63;;;1.00;;
16314;SDS011;8266;52.150;4.768;2022-09-03T04:54:15;1.35;;;1.10;;
16314;SDS011;8266;52.150;4.768;2022-09-03T04:56:42;0.73;;;0.70;;
16314;SDS011;8266;52.150;4.768;2022-09-03T04:59:09;5.07;;;0.90;;
16314;SDS011;8266;52.150;4.768;2022-09-03T05:01:37;1.33;;;0.90;;
16314;SDS011;8266;52.150;4.768;2022-09-03T05:04:06;1.95;;;0.95;;
16314;SDS011;8266;52.150;4.768;2022-09-03T05:06:33;1.00;;;0.80;;
16314;SDS011;8266;52.150;4.768;2022-09-03T05:09:02;1.40;;;0.77;;
16314;SDS011;8266;52.150;4.768;2022-09-03T05:11:30;1.10;;;0.90;;
16314;SDS011;8266;52.150;4.768;2022-09-03T05:13:57;2.83;;;0.85;;
16314;SDS011;8266;52.150;4.768;2022-09-03T05:16:26;1.60;;;1.20;;
16314;SDS011;8266;52.150;4.768;2022-09-03T05:18:55;2.85;;;0.90;;
16314;SDS011;8266;52.150;4.768;2022-09-03T05:21:26;1.23;;;0.90;;
16314;SDS011;8266;52.150;4.768;2022-09-03T05:23:54;2.17;;;1.08;;
16314;SDS011;8266;52.150;4.768;2022-09-03T05:26:22;1.35;;;0.95;;
16314;SDS011;8266;52.150;4.768;2022-09-03T05:28:52;1.55;;;0.80;;
16314;SDS011;8266;52.150;4.768;2022-09-03T05:31:21;1.73;;;0.80;;
16314;SDS011;8266;52.150;4.768;2022-09-03T05:33:51;1.20;;;1.02;;
16314;SDS011;8266;52.150;4.768;2022-09-03T05:36:20;1.45;;;1.13;;
16314;SDS011;8266;52.150;4.768;2022-09-03T05:38:52;1.52;;;1.00;;
16314;SDS011;8266;52.150;4.768;2022-09-03T05:41:26;2.55;;;0.80;;
16314;SDS011;8266;52.150;4.768;2022-09-03T05:43:54;2.38;;;0.90;;
16314;SDS011;8266;52.150;4.768;2022-09-03T05:46:23;0.70;;;0.70;;
16314;SDS011;8266;52.150;4.768;2022-09-03T05:48:55;1.15;;;0.82;;
16314;SDS011;8266;52.150;4.768;2022-09-03T05:51:22;1.38;;;0.90;;
16314;SDS011;8266;52.150;4.768;2022-09-03T05:53:50;1.73;;;0.88;;
16314;SDS011;8266;52.150;4.768;2022-09-03T05:56:20;1.85;;;0.70;;
16314;SDS011;8266;52.150;4.768;2022-09-03T05:58:48;0.65;;;0.63;;
16314;SDS011;8266;52.150;4.768;2022-09-03T06:01:17;1.25;;;0.73;;
16314;SDS011;8266;52.150;4.768;2022-09-03T06:03:46;1.90;;;0.88;;
16314;SDS011;8266;52.150;4.768;2022-09-03T06:06:16;1.67;;;0.60;;
16314;SDS011;8266;52.150;4.768;2022-09-03T06:08:47;2.28;;;0.80;;
16314;SDS011;8266;52.150;4.768;2022-09-03T06:11:17;0.70;;;0.60;;
16314;SDS011;8266;52.150;4.768;2022-09-03T06:13:43;1.10;;;0.63;;
16314;SDS011;8266;52.150;4.768;2022-09-03T06:16:11;1.45;;;0.88;;
16314;SDS011;8266;52.150;4.768;2022-09-03T06:18:38;4.10;;;0.80;;
16314;SDS011;8266;52.150;4.768;2022-09-03T06:21:06;0.77;;;0.75;;
16314;SDS011;8266;52.150;4.768;2022-09-03T06:23:33;1.00;;;0.82;;
16314;SDS011;8266;52.150;4.768;2022-09-03T06:26:01;1.35;;;0.68;;
16314;SDS011;8266;52.150;4.768;2022-09-03T06:28:31;2.08;;;0.82;;
16314;SDS011;8266;52.150;4.768;2022-09-03T06:31:00;2.97;;;0.80;;
16314;SDS011;8266;52.150;4.768;2022-09-03T06:33:28;1.30;;;0.85;;
16314;SDS011;8266;52.150;4.768;2022-09-03T06:35:56;0.77;;;0.70;;
16314;SDS011;8266;52.150;4.768;2022-09-03T06:38:23;2.00;;;0.88;;
16314;SDS011;8266;52.150;4.768;2022-09-03T06:40:52;2.90;;;0.80;;
16314;SDS011;8266;52.150;4.768;2022-09-03T06:43:20;2.78;;;0.90;;
16314;SDS011;8266;52.150;4.768;2022-09-03T06:45:56;1.30;;;0.68;;
16314;SDS011;8266;52.150;4.768;2022-09-03T06:48:25;1.00;;;0.80;;
16314;SDS011;8266;52.150;4.768;2022-09-03T06:50:53;2.35;;;0.75;;
16314;SDS011;8266;52.150;4.768;2022-09-03T06:53:22;3.13;;;0.80;;
16314;SDS011;8266;52.150;4.768;2022-09-03T06:55:53;1.20;;;0.75;;
16314;SDS011;8266;52.150;4.768;2022-09-03T06:58:21;1.13;;;0.77;;
16314;SDS011;8266;52.150;4.768;2022-09-03T07:00:48;1.08;;;0.70;;
16314;SDS011;8266;52.150;4.768;2022-09-03T07:03:19;3.20;;;0.85;;
16314;SDS011;8266;52.150;4.768;2022-09-03T07:05:46;1.52;;;1.00;;
16314;SDS011;8266;52.150;4.768;2022-09-03T07:08:13;1.98;;;0.90;;
16314;SDS011;8266;52.150;4.768;2022-09-03T07:10:40;0.73;;;0.70;;
16314;SDS011;8266;52.150;4.768;2022-09-03T07:13:11;1.00;;;0.80;;
16314;SDS011;8266;52.150;4.768;2022-09-03T07:15:38;1.23;;;0.77;;
16314;SDS011;8266;52.150;4.768;2022-09-03T07:18:06;1.20;;;1.00;;
16314;SDS011;8266;52.150;4.768;2022-09-03T07:20:34;3.83;;;1.20;;
16314;SDS011;8266;52.150;4.768;2022-09-03T07:23:01;1.83;;;1.10;;
16314;SDS011;8266;52.150;4.768;2022-09-03T07:25:28;1.10;;;0.77;;
16314;SDS011;8266;52.150;4.768;2022-09-03T07:27:56;1.00;;;0.75;;
16314;SDS011;8266;52.150;4.768;2022-09-03T07:30:24;0.68;;;0.68;;
16314;SDS011;8266;52.150;4.768;2022-09-03T07:32:51;1.38;;;0.70;;
16314;SDS011;8266;52.150;4.768;2022-09-03T07:35:19;1.42;;;0.88;;
16314;SDS011;8266;52.150;4.768;2022-09-03T07:37:51;1.60;;;0.73;;
16314;SDS011;8266;52.150;4.768;2022-09-03T07:40:19;0.60;;;0.60;;
16314;SDS011;8266;52.150;4.768;2022-09-03T07:42:46;1.63;;;0.70;;
16314;SDS011;8266;52.150;4.768;2022-09-03T07:45:13;2.25;;;0.80;;
16314;SDS011;8266;52.150;4.768;2022-09-03T07:47:46;3.03;;;1.00;;
16314;SDS011;8266;52.150;4.768;2022-09-03T07:50:14;1.20;;;0.73;;
16314;SDS011;8266;52.150;4.768;2022-09-03T07:52:41;1.77;;;0.90;;
16314;SDS011;8266;52.150;4.768;2022-09-03T07:55:10;1.92;;;0.70;;
16314;SDS011;8266;52.150;4.768;2022-09-03T07:57:37;4.63;;;1.13;;
16314;SDS011;8266;52.150;4.768;2022-09-03T08:00:04;1.77;;;1.10;;
16314;SDS011;8266;52.150;4.768;2022-09-03T08:02:32;1.52;;;0.80;;
16314;SDS011;8266;52.150;4.768;2022-09-03T08:04:59;1.40;;;0.68;;
16314;SDS011;8266;52.150;4.768;2022-09-03T08:07:29;2.10;;;0.68;;
16314;SDS011;8266;52.150;4.768;2022-09-03T08:09:56;0.90;;;0.60;;
16314;SDS011;8266;52.150;4.768;2022-09-03T08:12:24;1.90;;;0.80;;
16314;SDS011;8266;52.150;4.768;2022-09-03T08:14:53;2.90;;;0.88;;
16314;SDS011;8266;52.150;4.768;2022-09-03T08:17:33;0.80;;;0.80;;
16314;SDS011;8266;52.150;4.768;2022-09-03T08:20:00;1.73;;;0.60;;
16314;SDS011;8266;52.150;4.768;2022-09-03T08:22:27;0.70;;;0.50;;
16314;SDS011;8266;52.150;4.768;2022-09-03T08:24:55;1.40;;;0.73;;
16314;SDS011;8266;52.150;4.768;2022-09-03T08:27:22;2.20;;;0.90;;
16314;SDS011;8266;52.150;4.768;2022-09-03T08:29:51;2.58;;;0.73;;
16314;SDS011;8266;52.150;4.768;2022-09-03T08:32:18;2.03;;;0.90;;
16314;SDS011;8266;52.150;4.768;2022-09-03T08:34:45;0.63;;;0.63;;
16314;SDS011;8266;52.150;4.768;2022-09-03T08:37:12;0.93;;;0.50;;
16314;SDS011;8266;52.150;4.768;2022-09-03T08:39:39;1.20;;;0.70;;
16314;SDS011;8266;52.150;4.768;2022-09-03T08:42:12;1.40;;;0.80;;
16314;SDS011;8266;52.150;4.768;2022-09-03T08:44:57;1.70;;;0.70;;
16314;SDS011;8266;52.150;4.768;2022-09-03T08:47:27;0.75;;;0.52;;
16314;SDS011;8266;52.150;4.768;2022-09-03T08:50:00;1.65;;;0.93;;
16314;SDS011;8266;52.150;4.768;2022-09-03T08:52:31;1.05;;;0.80;;
16314;SDS011;8266;52.150;4.768;2022-09-03T08:57:49;0.90;;;0.60;;
16314;SDS011;8266;52.150;4.768;2022-09-03T09:00:21;0.82;;;0.70;;
16314;SDS011;8266;52.150;4.768;2022-09-03T09:02:53;2.03;;;0.88;;
16314;SDS011;8266;52.150;4.768;2022-09-03T09:05:34;0.88;;;0.70;;
16314;SDS011;8266;52.150;4.768;2022-09-03T09:08:12;1.65;;;0.73;;
16314;SDS011;8266;52.150;4.768;2022-09-03T09:10:45;0.98;;;0.80;;
16314;SDS011;8266;52.150;4.768;2022-09-03T09:13:17;2.10;;;0.80;;
16314;SDS011;8266;52.150;4.768;2022-09-03T09:15:53;1.38;;;0.70;;
16314;SDS011;8266;52.150;4.768;2022-09-03T09:18:34;0.98;;;0.75;;
16314;SDS011;8266;52.150;4.768;2022-09-03T09:21:12;0.60;;;0.60;;
16314;SDS011;8266;52.150;4.768;2022-09-03T09:23:42;1.40;;;0.50;;
16314;SDS011;8266;52.150;4.768;2022-09-03T09:26:13;1.27;;;0.68;;
16314;SDS011;8266;52.150;4.768;2022-09-03T09:28:43;1.70;;;0.50;;
16314;SDS011;8266;52.150;4.768;2022-09-03T09:31:14;3.33;;;0.75;;
16314;SDS011;8266;52.150;4.768;2022-09-03T09:33:43;1.10;;;0.60;;
16314;SDS011;8266;52.150;4.768;2022-09-03T09:36:11;1.52;;;0.70;;
16314;SDS011;8266;52.150;4.768;2022-09-03T09:38:40;1.90;;;0.70;;
16314;SDS011;8266;52.150;4.768;2022-09-03T09:41:10;4.95;;;0.90;;
16314;SDS011;8266;52.150;4.768;2022-09-03T09:43:38;1.90;;;0.80;;
16314;SDS011;8266;52.150;4.768;2022-09-03T09:46:07;0.93;;;0.63;;
16314;SDS011;8266;52.150;4.768;2022-09-03T09:48:42;1.25;;;0.80;;
16314;SDS011;8266;52.150;4.768;2022-09-03T09:51:17;1.73;;;0.70;;
16314;SDS011;8266;52.150;4.768;2022-09-03T09:53:45;0.98;;;0.60;;
16314;SDS011;8266;52.150;4.768;2022-09-03T09:56:19;1.67;;;0.88;;
16314;SDS011;8266;52.150;4.768;2022-09-03T09:58:46;1.98;;;1.05;;
16314;SDS011;8266;52.150;4.768;2022-09-03T10:01:16;1.60;;;0.80;;
16314;SDS011;8266;52.150;4.768;2022-09-03T10:03:51;5.75;;;0.70;;
16314;SDS011;8266;52.150;4.768;2022-09-03T10:06:21;1.45;;;0.60;;
16314;SDS011;8266;52.150;4.768;2022-09-03T10:09:08;2.47;;;0.52;;
16314;SDS011;8266;52.150;4.768;2022-09-03T10:11:38;4.03;;;1.05;;
16314;SDS011;8266;52.150;4.768;2022-09-03T10:14:12;3.08;;;0.80;;
16314;SDS011;8266;52.150;4.768;2022-09-03T10:23:31;1.65;;;0.80;;
16314;SDS011;8266;52.150;4.768;2022-09-03T10:26:06;2.75;;;0.80;;
16314;SDS011;8266;52.150;4.768;2022-09-03T10:28:37;1.05;;;0.52;;
16314;SDS011;8266;52.150;4.768;2022-09-03T10:34:05;1.20;;;0.50;;
16314;SDS011;8266;52.150;4.768;2022-09-03T10:36:41;10.82;;;0.88;;
16314;SDS011;8266;52.150;4.768;2022-09-03T10:39:18;1.10;;;0.90;;
16314;SDS011;8266;52.150;4.768;2022-09-03T10:41:52;0.80;;;0.60;;
16314;SDS011;8266;52.150;4.768;2022-09-03T10:44:34;0.50;;;0.45;;
16314;SDS011;8266;52.150;4.768;2022-09-03T10:47:18;3.17;;;0.70;;
16314;SDS011;8266;52.150;4.768;2022-09-03T10:49:58;1.55;;;0.77;;
16314;SDS011;8266;52.150;4.768;2022-09-03T10:52:37;1.38;;;0.70;;
16314;SDS011;8266;52.150;4.768;2022-09-03T10:55:22;1.10;;;0.65;;
16314;SDS011;8266;52.150;4.768;2022-09-03T10:57:58;1.23;;;0.75;;
16314;SDS011;8266;52.150;4.768;2022-09-03T11:00:32;2.92;;;0.60;;
16314;SDS011;8266;52.150;4.768;2022-09-03T11:03:12;3.47;;;0.73;;
16314;SDS011;8266;52.150;4.768;2022-09-03T11:06:03;1.23;;;0.52;;
16314;SDS011;8266;52.150;4.768;2022-09-03T11:08:38;2.58;;;0.88;;
16314;SDS011;8266;52.150;4.768;2022-09-03T11:11:10;2.13;;;0.98;;
16314;SDS011;8266;52.150;4.768;2022-09-03T11:13:45;1.10;;;0.70;;
16314;SDS011;8266;52.150;4.768;2022-09-03T11:16:16;1.92;;;0.80;;
16314;SDS011;8266;52.150;4.768;2022-09-03T11:18:46;1.73;;;0.77;;
16314;SDS011;8266;52.150;4.768;2022-09-03T11:21:17;2.20;;;0.63;;
16314;SDS011;8266;52.150;4.768;2022-09-03T11:23:49;1.15;;;0.65;;
16314;SDS011;8266;52.150;4.768;2022-09-03T11:26:24;1.45;;;0.60;;
16314;SDS011;8266;52.150;4.768;2022-09-03T11:28:53;2.08;;;0.60;;
16314;SDS011;8266;52.150;4.768;2022-09-03T11:31:29;1.30;;;0.70;;
16314;SDS011;8266;52.150;4.768;2022-09-03T11:34:05;1.10;;;0.60;;
16314;SDS011;8266;52.150;4.768;2022-09-03T11:36:34;1.02;;;0.65;;
16314;SDS011;8266;52.150;4.768;2022-09-03T11:39:17;1.20;;;0.60;;
16314;SDS011;8266;52.150;4.768;2022-09-03T11:41:55;2.03;;;0.60;;
16314;SDS011;8266;52.150;4.768;2022-09-03T11:44:25;2.45;;;0.90;;
16314;SDS011;8266;52.150;4.768;2022-09-03T11:47:11;0.82;;;0.80;;
16314;SDS011;8266;52.150;4.768;2022-09-03T11:49:43;1.48;;;0.85;;
16314;SDS011;8266;52.150;4.768;2022-09-03T11:52:23;1.25;;;0.60;;
16314;SDS011;8266;52.150;4.768;2022-09-03T11:54:54;3.47;;;0.60;;
16314;SDS011;8266;52.150;4.768;2022-09-03T11:57:23;4.10;;;0.47;;
16314;SDS011;8266;52.150;4.768;2022-09-03T11:59:54;1.45;;;0.60;;
16314;SDS011;8266;52.150;4.768;2022-09-03T12:02:34;1.00;;;0.70;;
16314;SDS011;8266;52.150;4.768;2022-09-03T12:05:12;1.15;;;0.40;;
16314;SDS011;8266;52.150;4.768;2022-09-03T12:10:53;1.13;;;0.80;;
16314;SDS011;8266;52.150;4.768;2022-09-03T12:13:35;1.23;;;0.60;;
16314;SDS011;8266;52.150;4.768;2022-09-03T12:19:16;0.50;;;0.50;;
16314;SDS011;8266;52.150;4.768;2022-09-03T12:21:49;1.63;;;0.50;;
16314;SDS011;8266;52.150;4.768;2022-09-03T12:24:16;2.20;;;0.73;;
16314;SDS011;8266;52.150;4.768;2022-09-03T12:26:48;1.50;;;0.63;;
16314;SDS011;8266;52.150;4.768;2022-09-03T12:29:19;2.20;;;0.60;;
16314;SDS011;8266;52.150;4.768;2022-09-03T12:31:49;1.00;;;0.60;;
16314;SDS011;8266;52.150;4.768;2022-09-03T12:34:19;3.47;;;0.95;;
16314;SDS011;8266;52.150;4.768;2022-09-03T12:36:47;1.25;;;0.77;;
16314;SDS011;8266;52.150;4.768;2022-09-03T12:39:16;2.45;;;1.13;;
16314;SDS011;8266;52.150;4.768;2022-09-03T12:41:56;2.40;;;0.88;;
16314;SDS011;8266;52.150;4.768;2022-09-03T12:44:28;1.30;;;0.68;;
16314;SDS011;8266;52.150;4.768;2022-09-03T12:47:00;1.58;;;0.80;;
16314;SDS011;8266;52.150;4.768;2022-09-03T12:49:35;0.98;;;0.70;;
16314;SDS011;8266;52.150;4.768;2022-09-03T12:52:04;1.23;;;0.75;;
16314;SDS011;8266;52.150;4.768;2022-09-03T12:54:40;7.30;;;0.85;;
16314;SDS011;8266;52.150;4.768;2022-09-03T12:57:13;0.63;;;0.57;;
16314;SDS011;8266;52.150;4.768;2022-09-03T12:59:45;2.30;;;0.68;;
16314;SDS011;8266;52.150;4.768;2022-09-03T13:02:15;2.28;;;0.80;;
16314;SDS011;8266;52.150;4.768;2022-09-03T13:04:46;1.98;;;0.95;;
16314;SDS011;8266;52.150;4.768;2022-09-03T13:07:14;0.60;;;0.60;;
16314;SDS011;8266;52.150;4.768;2022-09-03T13:09:50;1.30;;;0.85;;
16314;SDS011;8266;52.150;4.768;2022-09-03T13:12:27;0.90;;;0.63;;
16314;SDS011;8266;52.150;4.768;2022-09-03T13:14:55;1.50;;;0.70;;
16314;SDS011;8266;52.150;4.768;2022-09-03T13:17:29;1.23;;;0.60;;
16314;SDS011;8266;52.150;4.768;2022-09-03T13:20:19;1.33;;;0.68;;
16314;SDS011;8266;52.150;4.768;2022-09-03T13:23:01;3.03;;;0.90;;
16314;SDS011;8266;52.150;4.768;2022-09-03T13:25:41;2.70;;;1.15;;
16314;SDS011;8266;52.150;4.768;2022-09-03T13:28:20;1.75;;;0.82;;
16314;SDS011;8266;52.150;4.768;2022-09-03T13:31:05;0.88;;;0.60;;
16314;SDS011;8266;52.150;4.768;2022-09-03T13:33:48;1.48;;;0.95;;
16314;SDS011;8266;52.150;4.768;2022-09-03T13:36:20;1.35;;;0.57;;
16314;SDS011;8266;52.150;4.768;2022-09-03T13:38:50;1.00;;;0.80;;
16314;SDS011;8266;52.150;4.768;2022-09-03T13:41:29;3.20;;;0.80;;
16314;SDS011;8266;52.150;4.768;2022-09-03T13:44:05;0.80;;;0.68;;
16314;SDS011;8266;52.150;4.768;2022-09-03T13:46:39;0.65;;;0.60;;
16314;SDS011;8266;52.150;4.768;2022-09-03T13:49:15;1.80;;;;;
16314;SDS011;8266;52.150;4.768;2022-09-03T13:52:10;3.00;;;0.80;;
16314;SDS011;8266;52.150;4.768;2022-09-03T13:54:44;0.95;;;0.80;;
16314;SDS011;8266;52.150;4.768;2022-09-03T13:57:20;2.53;;;0.90;;
16314;SDS011;8266;52.150;4.768;2022-09-03T13:59:55;3.15;;;0.88;;
16314;SDS011;8266;52.150;4.768;2022-09-03T14:02:27;1.95;;;0.98;;
16314;SDS011;8266;52.150;4.768;2022-09-03T14:05:06;2.17;;;0.70;;
16314;SDS011;8266;52.150;4.768;2022-09-03T14:07:42;0.95;;;0.80;;
16314;SDS011;8266;52.150;4.768;2022-09-03T14:10:18;1.30;;;0.88;;
16314;SDS011;8266;52.150;4.768;2022-09-03T14:12:50;1.10;;;0.80;;
16314;SDS011;8266;52.150;4.768;2022-09-03T14:15:30;1.20;;;0.65;;
16314;SDS011;8266;52.150;4.768;2022-09-03T14:18:01;2.33;;;0.77;;
16314;SDS011;8266;52.150;4.768;2022-09-03T14:20:39;0.82;;;0.70;;
16314;SDS011;8266;52.150;4.768;2022-09-03T14:23:17;1.27;;;0.80;;
16314;SDS011;8266;52.150;4.768;2022-09-03T14:25:51;1.05;;;0.70;;
16314;SDS011;8266;52.150;4.768;2022-09-03T14:28:24;3.08;;;0.70;;
16314;SDS011;8266;52.150;4.768;2022-09-03T14:30:58;3.00;;;0.70;;
16314;SDS011;8266;52.150;4.768;2022-09-03T14:33:37;1.98;;;0.80;;
16314;SDS011;8266;52.150;4.768;2022-09-03T14:36:11;1.65;;;0.80;;
16314;SDS011;8266;52.150;4.768;2022-09-03T14:38:57;0.95;;;0.75;;
16314;SDS011;8266;52.150;4.768;2022-09-03T14:41:51;0.95;;;0.50;;
16314;SDS011;8266;52.150;4.768;2022-09-03T14:44:26;1.05;;;0.75;;
16314;SDS011;8266;52.150;4.768;2022-09-03T14:47:08;1.58;;;0.50;;
16314;SDS011;8266;52.150;4.768;2022-09-03T14:52:48;4.30;;;1.35;;
16314;SDS011;8266;52.150;4.768;2022-09-03T14:55:28;2.22;;;0.68;;
16314;SDS011;8266;52.150;4.768;2022-09-03T14:58:18;1.25;;;0.70;;
16314;SDS011;8266;52.150;4.768;2022-09-03T15:00:56;2.63;;;0.90;;
16314;SDS011;8266;52.150;4.768;2022-09-03T15:06:46;1.88;;;0.68;;
16314;SDS011;8266;52.150;4.768;2022-09-03T15:09:27;1.05;;;0.40;;
16314;SDS011;8266;52.150;4.768;2022-09-03T15:12:00;2.42;;;0.73;;
16314;SDS011;8266;52.150;4.768;2022-09-03T15:14:34;1.27;;;0.70;;
16314;SDS011;8266;52.150;4.768;2022-09-03T15:17:16;1.20;;;0.70;;
16314;SDS011;8266;52.150;4.768;2022-09-03T15:19:57;1.05;;;0.63;;
16314;SDS011;8266;52.150;4.768;2022-09-03T15:22:44;1.05;;;0.70;;
16314;SDS011;8266;52.150;4.768;2022-09-03T15:25:34;1.13;;;0.57;;
16314;SDS011;8266;52.150;4.768;2022-09-03T15:28:13;1.17;;;0.77;;
16314;SDS011;8266;52.150;4.768;2022-09-03T15:30:53;13.18;;;11.65;;
16314;SDS011;8266;52.150;4.768;2022-09-03T15:34:13;16.00;;;14.25;;
16314;SDS011;8266;52.150;4.768;2022-09-03T15:36:48;21.30;;;19.20;;
16314;SDS011;8266;52.150;4.768;2022-09-03T15:39:42;8.38;;;7.50;;
16314;SDS011;8266;52.150;4.768;2022-09-03T15:42:14;9.68;;;8.70;;
16314;SDS011;8266;52.150;4.768;2022-09-03T15:45:14;4.22;;;2.20;;
16314;SDS011;8266;52.150;4.768;2022-09-03T15:48:28;1.30;;;1.20;;
16314;SDS011;8266;52.150;4.768;2022-09-03T15:51:15;3.17;;;1.00;;
16314;SDS011;8266;52.150;4.768;2022-09-03T15:54:06;1.95;;;0.63;;
16314;SDS011;8266;52.150;4.768;2022-09-03T15:56:45;2.35;;;0.70;;
16314;SDS011;8266;52.150;4.768;2022-09-03T15:59:18;2.40;;;0.90;;